sensor_id;sensor_type;location;lat;lon;timestamp;temperature;humidity
16441;DHT22;8330;-33.858;151.184;2023-04-01T00:02:08;20.40;99.90
16441;DHT22;8330;-33.858;151.184;2023-04-01T00:04:39;20.30;99.90
16441;DHT22;8330;-33.858;151.184;2023-04-01T00:07:11;20.20;99.90
16441;DHT22;8330;-33.858;151.184;2023-04-01T00:09:42;20.10;99.90
16441;DHT22;8330;-33.858;151.184;2023-04-01T00:12:13;20.00;99.90
16441;DHT22;8330;-33.858;151.184;2023-04-01T00:14:44;20.00;99.90
16441;DHT22;8330;-33.858;151.184;2023-04-01T00:17:18;19.80;99.90
16441;DHT22;8330;-33.858;151.184;2023-04-01T00:19:49;19.70;99.90
16441;DHT22;8330;-33.858;151.184;2023-04-01T00:22:20;19.60;99.90
16441;DHT22;8330;-33.858;151.184;2023-04-01T00:24:51;19.50;99.90
16441;DHT22;8330;-33.858;151.184;2023-04-01T00:27:22;19.40;99.90
16441;DHT22;8330;-33.858;151.184;2023-04-01T00:29:53;19.40;99.90
16441;DHT22;8330;-33.858;151.184;2023-04-01T00:32:27;19.40;99.90
16441;DHT22;8330;-33.858;151.184;2023-04-01T00:34:59;19.40;99.90
16441;DHT22;8330;-33.858;151.184;2023-04-01T00:37:30;19.30;99.90
16441;DHT22;8330;-33.858;151.184;2023-04-01T00:40:01;19.30;99.90
16441;DHT22;8330;-33.858;151.184;2023-04-01T00:42:32;19.20;99.90
16441;DHT22;8330;-33.858;151.184;2023-04-01T00:45:28;19.20;99.90
16441;DHT22;8330;-33.858;151.184;2023-04-01T00:48:04;19.20;99.90
16441;DHT22;8330;-33.858;151.184;2023-04-01T00:50:37;19.30;99.90
16441;DHT22;8330;-33.858;151.184;2023-04-01T00:53:11;19.20;99.90
16441;DHT22;8330;-33.858;151.184;2023-04-01T00:55:49;19.10;99.90
16441;DHT22;8330;-33.858;151.184;2023-04-01T00:58:23;19.10;99.90
16441;DHT22;8330;-33.858;151.184;2023-04-01T01:00:55;19.10;99.90
16441;DHT22;8330;-33.858;151.184;2023-04-01T01:03:29;19.20;99.90
16441;DHT22;8330;-33.858;151.184;2023-04-01T01:06:17;19.20;99.90
16441;DHT22;8330;-33.858;151.184;2023-04-01T01:09:06;19.30;99.90
16441;DHT22;8330;-33.858;151.184;2023-04-01T01:11:44;19.20;99.90
16441;DHT22;8330;-33.858;151.184;2023-04-01T01:14:33;19.20;99.90
16441;DHT22;8330;-33.858;151.184;2023-04-01T01:17:13;19.20;99.90
16441;DHT22;8330;-33.858;151.184;2023-04-01T01:29:13;19.00;99.90
16441;DHT22;8330;-33.858;151.184;2023-04-01T01:31:54;19.00;99.90
16441;DHT22;8330;-33.858;151.184;2023-04-01T01:34:30;19.00;99.90
16441;DHT22;8330;-33.858;151.184;2023-04-01T01:37:08;19.00;99.90
16441;DHT22;8330;-33.858;151.184;2023-04-01T01:39:41;19.10;99.90
16441;DHT22;8330;-33.858;151.184;2023-04-01T01:42:15;19.10;99.90
16441;DHT22;8330;-33.858;151.184;2023-04-01T01:44:50;19.00;99.90
16441;DHT22;8330;-33.858;151.184;2023-04-01T01:47:23;19.00;99.90
16441;DHT22;8330;-33.858;151.184;2023-04-01T01:49:56;19.00;99.90
16441;DHT22;8330;-33.858;151.184;2023-04-01T01:52:30;19.00;99.90
16441;DHT22;8330;-33.858;151.184;2023-04-01T01:55:01;19.10;99.90
16441;DHT22;8330;-33.858;151.184;2023-04-01T01:57:34;19.00;99.90
16441;DHT22;8330;-33.858;151.184;2023-04-01T02:00:09;19.00;99.90
16441;DHT22;8330;-33.858;151.184;2023-04-01T02:02:41;19.00;99.90
16441;DHT22;8330;-33.858;151.184;2023-04-01T02:05:17;19.00;99.90
16441;DHT22;8330;-33.858;151.184;2023-04-01T02:07:55;19.10;99.90
16441;DHT22;8330;-33.858;151.184;2023-04-01T02:10:30;19.10;99.90
16441;DHT22;8330;-33.858;151.184;2023-04-01T02:13:05;19.10;99.90
16441;DHT22;8330;-33.858;151.184;2023-04-01T02:15:43;19.10;99.90
16441;DHT22;8330;-33.858;151.184;2023-04-01T02:18:16;19.20;99.90
16441;DHT22;8330;-33.858;151.184;2023-04-01T02:20:50;19.20;99.90
16441;DHT22;8330;-33.858;151.184;2023-04-01T02:23:25;19.20;99.90
16441;DHT22;8330;-33.858;151.184;2023-04-01T02:25:57;19.20;99.90
16441;DHT22;8330;-33.858;151.184;2023-04-01T02:28:29;19.20;99.90
16441;DHT22;8330;-33.858;151.184;2023-04-01T02:31:02;19.20;99.90
16441;DHT22;8330;-33.858;151.184;2023-04-01T02:33:34;19.00;99.90
16441;DHT22;8330;-33.858;151.184;2023-04-01T02:36:05;18.90;99.90
16441;DHT22;8330;-33.858;151.184;2023-04-01T02:38:39;18.80;99.90
16441;DHT22;8330;-33.858;151.184;2023-04-01T02:41:11;18.80;99.90
16441;DHT22;8330;-33.858;151.184;2023-04-01T02:43:44;18.80;99.90
16441;DHT22;8330;-33.858;151.184;2023-04-01T02:46:15;18.80;99.90
16441;DHT22;8330;-33.858;151.184;2023-04-01T02:48:47;18.80;99.90
16441;DHT22;8330;-33.858;151.184;2023-04-01T02:51:18;18.70;99.90
16441;DHT22;8330;-33.858;151.184;2023-04-01T02:53:51;18.70;99.90
16441;DHT22;8330;-33.858;151.184;2023-04-01T02:56:22;18.70;99.90
16441;DHT22;8330;-33.858;151.184;2023-04-01T02:58:53;18.70;99.90
16441;DHT22;8330;-33.858;151.184;2023-04-01T03:01:24;18.80;99.90
16441;DHT22;8330;-33.858;151.184;2023-04-01T03:03:56;18.90;99.90
16441;DHT22;8330;-33.858;151.184;2023-04-01T03:06:27;18.90;99.90
16441;DHT22;8330;-33.858;151.184;2023-04-01T03:09:00;19.00;99.90
16441;DHT22;8330;-33.858;151.184;2023-04-01T03:11:32;19.00;99.90
16441;DHT22;8330;-33.858;151.184;2023-04-01T03:14:03;18.80;99.90
16441;DHT22;8330;-33.858;151.184;2023-04-01T03:16:34;18.80;99.90
16441;DHT22;8330;-33.858;151.184;2023-04-01T03:19:06;18.80;99.90
16441;DHT22;8330;-33.858;151.184;2023-04-01T03:21:37;18.80;99.90
16441;DHT22;8330;-33.858;151.184;2023-04-01T03:24:10;18.80;99.90
16441;DHT22;8330;-33.858;151.184;2023-04-01T03:26:41;18.70;99.90
16441;DHT22;8330;-33.858;151.184;2023-04-01T03:29:12;18.70;99.90
16441;DHT22;8330;-33.858;151.184;2023-04-01T03:31:43;18.80;99.90
16441;DHT22;8330;-33.858;151.184;2023-04-01T03:34:14;18.90;99.90
16441;DHT22;8330;-33.858;151.184;2023-04-01T03:36:45;19.00;99.90
16441;DHT22;8330;-33.858;151.184;2023-04-01T03:39:18;18.90;99.90
16441;DHT22;8330;-33.858;151.184;2023-04-01T03:41:49;18.80;99.90
16441;DHT22;8330;-33.858;151.184;2023-04-01T03:44:20;18.80;99.90
16441;DHT22;8330;-33.858;151.184;2023-04-01T03:46:51;18.80;99.90
16441;DHT22;8330;-33.858;151.184;2023-04-01T03:49:26;18.70;99.90
16441;DHT22;8330;-33.858;151.184;2023-04-01T03:51:58;18.80;99.90
16441;DHT22;8330;-33.858;151.184;2023-04-01T03:54:31;18.80;99.90
16441;DHT22;8330;-33.858;151.184;2023-04-01T03:57:02;18.80;99.90
16441;DHT22;8330;-33.858;151.184;2023-04-01T03:59:33;18.80;99.90
16441;DHT22;8330;-33.858;151.184;2023-04-01T04:02:04;18.90;99.90
16441;DHT22;8330;-33.858;151.184;2023-04-01T04:04:35;18.90;99.90
16441;DHT22;8330;-33.858;151.184;2023-04-01T04:07:07;18.90;99.90
16441;DHT22;8330;-33.858;151.184;2023-04-01T04:09:40;18.80;99.90
16441;DHT22;8330;-33.858;151.184;2023-04-01T04:12:11;18.80;99.90
16441;DHT22;8330;-33.858;151.184;2023-04-01T04:14:42;18.90;99.90
16441;DHT22;8330;-33.858;151.184;2023-04-01T04:17:13;19.00;99.90
16441;DHT22;8330;-33.858;151.184;2023-04-01T04:19:44;19.00;99.90
16441;DHT22;8330;-33.858;151.184;2023-04-01T04:22:15;19.00;99.90
16441;DHT22;8330;-33.858;151.184;2023-04-01T04:24:48;19.00;99.90
16441;DHT22;8330;-33.858;151.184;2023-04-01T04:27:19;19.00;99.90
16441;DHT22;8330;-33.858;151.184;2023-04-01T04:29:50;19.10;99.90
16441;DHT22;8330;-33.858;151.184;2023-04-01T04:32:21;19.00;99.90
16441;DHT22;8330;-33.858;151.184;2023-04-01T04:34:52;18.90;99.90
16441;DHT22;8330;-33.858;151.184;2023-04-01T04:37:23;18.80;99.90
16441;DHT22;8330;-33.858;151.184;2023-04-01T04:39:57;18.80;99.90
16441;DHT22;8330;-33.858;151.184;2023-04-01T04:42:32;18.80;99.90
16441;DHT22;8330;-33.858;151.184;2023-04-01T04:45:03;18.90;99.90
16441;DHT22;8330;-33.858;151.184;2023-04-01T04:47:35;18.90;99.90
16441;DHT22;8330;-33.858;151.184;2023-04-01T04:50:07;18.90;99.90
16441;DHT22;8330;-33.858;151.184;2023-04-01T04:52:38;18.90;99.90
16441;DHT22;8330;-33.858;151.184;2023-04-01T04:55:11;18.80;99.90
16441;DHT22;8330;-33.858;151.184;2023-04-01T04:57:42;18.90;99.90
16441;DHT22;8330;-33.858;151.184;2023-04-01T05:00:14;18.90;99.90
16441;DHT22;8330;-33.858;151.184;2023-04-01T05:02:45;18.90;99.90
16441;DHT22;8330;-33.858;151.184;2023-04-01T05:05:16;19.00;99.90
16441;DHT22;8330;-33.858;151.184;2023-04-01T05:07:47;19.10;99.90
16441;DHT22;8330;-33.858;151.184;2023-04-01T05:10:20;19.10;99.90
16441;DHT22;8330;-33.858;151.184;2023-04-01T05:12:52;19.00;99.90
16441;DHT22;8330;-33.858;151.184;2023-04-01T05:15:23;19.10;99.90
16441;DHT22;8330;-33.858;151.184;2023-04-01T05:17:54;19.10;99.90
16441;DHT22;8330;-33.858;151.184;2023-04-01T05:20:25;19.20;99.90
16441;DHT22;8330;-33.858;151.184;2023-04-01T05:22:57;19.40;99.90
16441;DHT22;8330;-33.858;151.184;2023-04-01T05:25:30;19.50;99.90
16441;DHT22;8330;-33.858;151.184;2023-04-01T05:28:01;19.50;99.90
16441;DHT22;8330;-33.858;151.184;2023-04-01T05:30:32;19.60;99.90
16441;DHT22;8330;-33.858;151.184;2023-04-01T05:33:04;19.60;99.90
16441;DHT22;8330;-33.858;151.184;2023-04-01T05:35:35;19.70;99.90
16441;DHT22;8330;-33.858;151.184;2023-04-01T05:38:06;19.80;99.90
16441;DHT22;8330;-33.858;151.184;2023-04-01T05:40:39;20.00;99.90
16441;DHT22;8330;-33.858;151.184;2023-04-01T05:43:10;20.10;99.90
16441;DHT22;8330;-33.858;151.184;2023-04-01T05:45:41;20.40;99.90
16441;DHT22;8330;-33.858;151.184;2023-04-01T05:48:12;20.50;99.90
16441;DHT22;8330;-33.858;151.184;2023-04-01T05:50:43;20.70;99.90
16441;DHT22;8330;-33.858;151.184;2023-04-01T05:53:14;20.70;99.90
16441;DHT22;8330;-33.858;151.184;2023-04-01T05:55:48;20.80;99.90
16441;DHT22;8330;-33.858;151.184;2023-04-01T05:58:19;20.80;99.90
16441;DHT22;8330;-33.858;151.184;2023-04-01T06:00:50;20.80;99.90
16441;DHT22;8330;-33.858;151.184;2023-04-01T06:03:21;20.80;99.90
16441;DHT22;8330;-33.858;151.184;2023-04-01T06:05:52;20.70;99.90
16441;DHT22;8330;-33.858;151.184;2023-04-01T06:08:23;20.70;99.90
16441;DHT22;8330;-33.858;151.184;2023-04-01T06:11:07;20.70;99.90
16441;DHT22;8330;-33.858;151.184;2023-04-01T06:14:02;20.60;99.90
16441;DHT22;8330;-33.858;151.184;2023-04-01T06:16:49;20.60;99.90
16441;DHT22;8330;-33.858;151.184;2023-04-01T06:19:30;20.50;99.90
16441;DHT22;8330;-33.858;151.184;2023-04-01T06:22:18;20.40;99.90
16441;DHT22;8330;-33.858;151.184;2023-04-01T06:25:25;20.40;99.90
16441;DHT22;8330;-33.858;151.184;2023-04-01T06:28:16;20.20;99.90
16441;DHT22;8330;-33.858;151.184;2023-04-01T06:30:56;20.20;99.90
16441;DHT22;8330;-33.858;151.184;2023-04-01T06:33:50;20.20;99.90
16441;DHT22;8330;-33.858;151.184;2023-04-01T06:36:52;20.20;99.90
16441;DHT22;8330;-33.858;151.184;2023-04-01T06:39:41;20.20;99.90
16441;DHT22;8330;-33.858;151.184;2023-04-01T06:42:27;20.30;99.90
16441;DHT22;8330;-33.858;151.184;2023-04-01T06:45:12;20.30;99.90
16441;DHT22;8330;-33.858;151.184;2023-04-01T06:48:00;20.40;99.90
16441;DHT22;8330;-33.858;151.184;2023-04-01T06:50:39;20.40;99.90
16441;DHT22;8330;-33.858;151.184;2023-04-01T06:53:18;20.50;99.90
16441;DHT22;8330;-33.858;151.184;2023-04-01T06:55:55;20.50;99.90
16441;DHT22;8330;-33.858;151.184;2023-04-01T06:58:30;20.50;99.90
16441;DHT22;8330;-33.858;151.184;2023-04-01T07:01:09;20.60;99.90
16441;DHT22;8330;-33.858;151.184;2023-04-01T07:03:43;20.60;99.90
16441;DHT22;8330;-33.858;151.184;2023-04-01T07:06:19;20.50;99.90
16441;DHT22;8330;-33.858;151.184;2023-04-01T07:08:52;20.50;99.90
16441;DHT22;8330;-33.858;151.184;2023-04-01T07:11:28;20.50;99.90
16441;DHT22;8330;-33.858;151.184;2023-04-01T07:14:03;20.50;99.90
16441;DHT22;8330;-33.858;151.184;2023-04-01T07:16:42;20.50;99.90
16441;DHT22;8330;-33.858;151.184;2023-04-01T07:19:18;20.50;99.90
16441;DHT22;8330;-33.858;151.184;2023-04-01T07:21:54;20.50;99.90
16441;DHT22;8330;-33.858;151.184;2023-04-01T07:24:29;20.50;99.90
16441;DHT22;8330;-33.858;151.184;2023-04-01T07:27:03;20.40;99.90
16441;DHT22;8330;-33.858;151.184;2023-04-01T07:29:36;20.40;99.90
16441;DHT22;8330;-33.858;151.184;2023-04-01T07:32:26;20.30;99.90
16441;DHT22;8330;-33.858;151.184;2023-04-01T07:35:10;20.30;99.90
16441;DHT22;8330;-33.858;151.184;2023-04-01T07:37:52;20.20;99.90
16441;DHT22;8330;-33.858;151.184;2023-04-01T07:40:30;20.20;99.90
16441;DHT22;8330;-33.858;151.184;2023-04-01T07:43:22;20.20;99.90
16441;DHT22;8330;-33.858;151.184;2023-04-01T07:46:05;20.20;99.90
16441;DHT22;8330;-33.858;151.184;2023-04-01T07:48:47;20.20;99.90
16441;DHT22;8330;-33.858;151.184;2023-04-01T07:51:24;20.20;99.90
16441;DHT22;8330;-33.858;151.184;2023-04-01T07:54:03;20.10;99.90
16441;DHT22;8330;-33.858;151.184;2023-04-01T07:56:39;20.10;99.90
16441;DHT22;8330;-33.858;151.184;2023-04-01T07:59:17;20.10;99.90
16441;DHT22;8330;-33.858;151.184;2023-04-01T08:01:55;20.10;99.90
16441;DHT22;8330;-33.858;151.184;2023-04-01T08:04:44;20.10;99.90
16441;DHT22;8330;-33.858;151.184;2023-04-01T08:07:22;20.10;99.90
16441;DHT22;8330;-33.858;151.184;2023-04-01T08:09:59;20.10;99.90
16441;DHT22;8330;-33.858;151.184;2023-04-01T08:12:40;20.10;99.90
16441;DHT22;8330;-33.858;151.184;2023-04-01T08:15:21;20.10;99.90
16441;DHT22;8330;-33.858;151.184;2023-04-01T08:18:08;20.10;99.90
16441;DHT22;8330;-33.858;151.184;2023-04-01T08:20:48;20.10;99.90
16441;DHT22;8330;-33.858;151.184;2023-04-01T08:23:22;20.10;99.90
16441;DHT22;8330;-33.858;151.184;2023-04-01T08:26:00;20.10;99.90
16441;DHT22;8330;-33.858;151.184;2023-04-01T08:28:37;20.10;99.90
16441;DHT22;8330;-33.858;151.184;2023-04-01T08:31:13;20.10;99.90
16441;DHT22;8330;-33.858;151.184;2023-04-01T08:33:47;20.10;99.90
16441;DHT22;8330;-33.858;151.184;2023-04-01T08:36:24;20.10;99.90
16441;DHT22;8330;-33.858;151.184;2023-04-01T08:39:04;20.10;99.90
16441;DHT22;8330;-33.858;151.184;2023-04-01T08:45:22;20.10;99.90
16441;DHT22;8330;-33.858;151.184;2023-04-01T08:48:20;20.10;99.90
16441;DHT22;8330;-33.858;151.184;2023-04-01T08:54:20;20.10;99.90
16441;DHT22;8330;-33.858;151.184;2023-04-01T08:57:01;20.10;99.90
16441;DHT22;8330;-33.858;151.184;2023-04-01T09:00:07;20.10;99.90
16441;DHT22;8330;-33.858;151.184;2023-04-01T09:02:53;20.10;99.90
16441;DHT22;8330;-33.858;151.184;2023-04-01T09:05:35;20.10;99.90
16441;DHT22;8330;-33.858;151.184;2023-04-01T09:08:22;20.10;99.90
16441;DHT22;8330;-33.858;151.184;2023-04-01T09:11:17;20.10;99.90
16441;DHT22;8330;-33.858;151.184;2023-04-01T09:14:20;20.00;99.90
16441;DHT22;8330;-33.858;151.184;2023-04-01T09:20:25;20.00;99.90
16441;DHT22;8330;-33.858;151.184;2023-04-01T09:23:17;20.00;99.90
16441;DHT22;8330;-33.858;151.184;2023-04-01T09:26:03;20.00;99.90
16441;DHT22;8330;-33.858;151.184;2023-04-01T09:28:50;20.00;99.90
16441;DHT22;8330;-33.858;151.184;2023-04-01T09:31:44;20.00;99.90
16441;DHT22;8330;-33.858;151.184;2023-04-01T09:34:40;20.00;99.90
16441;DHT22;8330;-33.858;151.184;2023-04-01T09:37:21;19.90;99.90
16441;DHT22;8330;-33.858;151.184;2023-04-01T09:40:17;20.00;99.90
16441;DHT22;8330;-33.858;151.184;2023-04-01T09:43:19;19.90;99.90
16441;DHT22;8330;-33.858;151.184;2023-04-01T09:46:19;19.80;99.90
16441;DHT22;8330;-33.858;151.184;2023-04-01T09:49:17;19.90;99.90
16441;DHT22;8330;-33.858;151.184;2023-04-01T09:52:02;19.90;99.90
16441;DHT22;8330;-33.858;151.184;2023-04-01T09:55:03;19.90;99.90
16441;DHT22;8330;-33.858;151.184;2023-04-01T10:01:02;19.80;99.90
16441;DHT22;8330;-33.858;151.184;2023-04-01T10:04:10;19.70;99.90
16441;DHT22;8330;-33.858;151.184;2023-04-01T10:10:26;19.70;99.90
16441;DHT22;8330;-33.858;151.184;2023-04-01T10:13:49;19.70;99.90
16441;DHT22;8330;-33.858;151.184;2023-04-01T10:20:23;19.60;99.90
16441;DHT22;8330;-33.858;151.184;2023-04-01T10:23:22;19.60;99.90
16441;DHT22;8330;-33.858;151.184;2023-04-01T10:29:25;19.60;99.90
16441;DHT22;8330;-33.858;151.184;2023-04-01T10:35:38;19.60;99.90
16441;DHT22;8330;-33.858;151.184;2023-04-01T10:44:58;19.50;99.90
16441;DHT22;8330;-33.858;151.184;2023-04-01T10:48:00;19.40;99.90
16441;DHT22;8330;-33.858;151.184;2023-04-01T10:54:18;19.40;99.90
16441;DHT22;8330;-33.858;151.184;2023-04-01T10:56:55;19.40;99.90
16441;DHT22;8330;-33.858;151.184;2023-04-01T11:02:50;19.30;99.90
16441;DHT22;8330;-33.858;151.184;2023-04-01T11:06:10;19.30;99.90
16441;DHT22;8330;-33.858;151.184;2023-04-01T11:09:16;19.20;99.90
16441;DHT22;8330;-33.858;151.184;2023-04-01T11:15:38;19.20;99.90
16441;DHT22;8330;-33.858;151.184;2023-04-01T11:21:42;19.10;99.90
16441;DHT22;8330;-33.858;151.184;2023-04-01T11:24:50;19.10;99.90
16441;DHT22;8330;-33.858;151.184;2023-04-01T11:27:39;19.20;99.90
16441;DHT22;8330;-33.858;151.184;2023-04-01T11:30:23;19.10;99.90
16441;DHT22;8330;-33.858;151.184;2023-04-01T11:33:01;19.20;99.90
16441;DHT22;8330;-33.858;151.184;2023-04-01T11:36:05;19.10;99.90
16441;DHT22;8330;-33.858;151.184;2023-04-01T11:41:58;19.20;99.90
16441;DHT22;8330;-33.858;151.184;2023-04-01T11:44:37;19.20;99.90
16441;DHT22;8330;-33.858;151.184;2023-04-01T11:47:24;19.20;99.90
16441;DHT22;8330;-33.858;151.184;2023-04-01T11:50:18;19.20;99.90
16441;DHT22;8330;-33.858;151.184;2023-04-01T11:53:10;19.10;99.90
16441;DHT22;8330;-33.858;151.184;2023-04-01T11:55:55;19.00;99.90
16441;DHT22;8330;-33.858;151.184;2023-04-01T11:58:43;19.00;99.90
16441;DHT22;8330;-33.858;151.184;2023-04-01T12:01:46;18.90;99.90
16441;DHT22;8330;-33.858;151.184;2023-04-01T12:04:47;18.90;99.90
16441;DHT22;8330;-33.858;151.184;2023-04-01T12:07:31;18.90;99.90
16441;DHT22;8330;-33.858;151.184;2023-04-01T12:10:16;19.00;99.90
16441;DHT22;8330;-33.858;151.184;2023-04-01T12:12:58;19.00;99.90
16441;DHT22;8330;-33.858;151.184;2023-04-01T12:15:43;19.00;99.90
16441;DHT22;8330;-33.858;151.184;2023-04-01T12:18:23;19.10;99.90
16441;DHT22;8330;-33.858;151.184;2023-04-01T12:21:00;19.10;99.90
16441;DHT22;8330;-33.858;151.184;2023-04-01T12:26:43;19.00;99.90
16441;DHT22;8330;-33.858;151.184;2023-04-01T12:29:39;19.10;99.90
16441;DHT22;8330;-33.858;151.184;2023-04-01T12:32:23;19.00;99.90
16441;DHT22;8330;-33.858;151.184;2023-04-01T12:35:12;18.90;99.90
16441;DHT22;8330;-33.858;151.184;2023-04-01T12:37:51;18.80;99.90
16441;DHT22;8330;-33.858;151.184;2023-04-01T12:43:46;18.70;99.90
16441;DHT22;8330;-33.858;151.184;2023-04-01T12:46:25;18.60;99.90
16441;DHT22;8330;-33.858;151.184;2023-04-01T12:49:18;18.60;99.90
16441;DHT22;8330;-33.858;151.184;2023-04-01T12:52:15;18.60;99.90
16441;DHT22;8330;-33.858;151.184;2023-04-01T12:58:17;18.50;99.90
16441;DHT22;8330;-33.858;151.184;2023-04-01T13:01:03;18.40;99.90
16441;DHT22;8330;-33.858;151.184;2023-04-01T13:03:52;18.50;99.90
16441;DHT22;8330;-33.858;151.184;2023-04-01T13:07:00;18.50;99.90
16441;DHT22;8330;-33.858;151.184;2023-04-01T13:09:52;18.40;99.90
16441;DHT22;8330;-33.858;151.184;2023-04-01T13:12:52;18.40;99.90
16441;DHT22;8330;-33.858;151.184;2023-04-01T13:15:35;18.40;99.90
16441;DHT22;8330;-33.858;151.184;2023-04-01T13:18:25;18.50;99.90
16441;DHT22;8330;-33.858;151.184;2023-04-01T13:21:13;18.60;99.90
16441;DHT22;8330;-33.858;151.184;2023-04-01T13:23:58;18.60;99.90
16441;DHT22;8330;-33.858;151.184;2023-04-01T13:26:38;18.60;99.90
16441;DHT22;8330;-33.858;151.184;2023-04-01T13:29:14;18.60;99.90
16441;DHT22;8330;-33.858;151.184;2023-04-01T13:32:07;18.60;99.90
16441;DHT22;8330;-33.858;151.184;2023-04-01T13:34:52;18.50;99.90
16441;DHT22;8330;-33.858;151.184;2023-04-01T13:37:47;18.50;99.90
16441;DHT22;8330;-33.858;151.184;2023-04-01T13:40:35;18.50;99.90
16441;DHT22;8330;-33.858;151.184;2023-04-01T13:43:15;18.50;99.90
16441;DHT22;8330;-33.858;151.184;2023-04-01T13:46:22;18.40;99.90
16441;DHT22;8330;-33.858;151.184;2023-04-01T13:49:23;18.40;99.90
16441;DHT22;8330;-33.858;151.184;2023-04-01T13:55:31;18.40;99.90
16441;DHT22;8330;-33.858;151.184;2023-04-01T13:58:34;18.50;99.90
16441;DHT22;8330;-33.858;151.184;2023-04-01T14:01:12;18.60;99.90
16441;DHT22;8330;-33.858;151.184;2023-04-01T14:07:01;18.70;99.90
16441;DHT22;8330;-33.858;151.184;2023-04-01T14:12:46;18.80;99.90
16441;DHT22;8330;-33.858;151.184;2023-04-01T14:15:54;18.80;99.90
16441;DHT22;8330;-33.858;151.184;2023-04-01T14:18:46;18.80;99.90
16441;DHT22;8330;-33.858;151.184;2023-04-01T14:21:30;18.90;99.90
16441;DHT22;8330;-33.858;151.184;2023-04-01T14:27:28;18.90;99.90
16441;DHT22;8330;-33.858;151.184;2023-04-01T14:30:16;18.90;99.90
16441;DHT22;8330;-33.858;151.184;2023-04-01T14:32:57;18.70;99.90
16441;DHT22;8330;-33.858;151.184;2023-04-01T14:35:37;18.50;99.90
16441;DHT22;8330;-33.858;151.184;2023-04-01T14:38:28;18.30;99.90
16441;DHT22;8330;-33.858;151.184;2023-04-01T14:41:12;18.20;99.90
16441;DHT22;8330;-33.858;151.184;2023-04-01T14:47:25;18.00;99.90
16441;DHT22;8330;-33.858;151.184;2023-04-01T14:50:07;17.90;99.90
16441;DHT22;8330;-33.858;151.184;2023-04-01T14:52:42;17.90;99.90
16441;DHT22;8330;-33.858;151.184;2023-04-01T14:55:24;17.90;99.90
16441;DHT22;8330;-33.858;151.184;2023-04-01T14:58:11;17.90;99.90
16441;DHT22;8330;-33.858;151.184;2023-04-01T15:00:50;17.90;99.90
16441;DHT22;8330;-33.858;151.184;2023-04-01T15:03:28;17.90;99.90
16441;DHT22;8330;-33.858;151.184;2023-04-01T15:06:30;17.80;99.90
16441;DHT22;8330;-33.858;151.184;2023-04-01T15:09:09;17.90;99.90
16441;DHT22;8330;-33.858;151.184;2023-04-01T15:11:52;17.80;99.90
16441;DHT22;8330;-33.858;151.184;2023-04-01T15:14:37;17.80;99.90
16441;DHT22;8330;-33.858;151.184;2023-04-01T15:17:29;17.80;99.90
16441;DHT22;8330;-33.858;151.184;2023-04-01T15:23:16;17.80;99.90
16441;DHT22;8330;-33.858;151.184;2023-04-01T15:26:11;17.80;99.90
16441;DHT22;8330;-33.858;151.184;2023-04-01T15:28:55;17.90;99.90
16441;DHT22;8330;-33.858;151.184;2023-04-01T15:31:31;18.00;99.90
16441;DHT22;8330;-33.858;151.184;2023-04-01T15:34:21;18.10;99.90
16441;DHT22;8330;-33.858;151.184;2023-04-01T15:37:04;18.20;99.90
16441;DHT22;8330;-33.858;151.184;2023-04-01T15:39:49;18.20;99.90
16441;DHT22;8330;-33.858;151.184;2023-04-01T15:42:34;18.30;99.90
16441;DHT22;8330;-33.858;151.184;2023-04-01T15:45:18;18.30;99.90
16441;DHT22;8330;-33.858;151.184;2023-04-01T15:48:06;18.30;99.90
16441;DHT22;8330;-33.858;151.184;2023-04-01T15:50:58;18.40;99.90
16441;DHT22;8330;-33.858;151.184;2023-04-01T15:53:50;18.40;99.90
16441;DHT22;8330;-33.858;151.184;2023-04-01T15:56:46;18.40;99.90
16441;DHT22;8330;-33.858;151.184;2023-04-01T15:59:37;18.50;99.90
16441;DHT22;8330;-33.858;151.184;2023-04-01T16:02:17;18.50;99.90
16441;DHT22;8330;-33.858;151.184;2023-04-01T16:04:58;18.50;99.90
16441;DHT22;8330;-33.858;151.184;2023-04-01T16:07:49;18.50;99.90
16441;DHT22;8330;-33.858;151.184;2023-04-01T16:13:42;18.40;99.90
16441;DHT22;8330;-33.858;151.184;2023-04-01T16:16:25;18.40;99.90
16441;DHT22;8330;-33.858;151.184;2023-04-01T16:19:12;18.40;99.90
16441;DHT22;8330;-33.858;151.184;2023-04-01T16:21:51;18.40;99.90
16441;DHT22;8330;-33.858;151.184;2023-04-01T16:24:33;18.40;99.90
16441;DHT22;8330;-33.858;151.184;2023-04-01T16:27:12;18.40;99.90
16441;DHT22;8330;-33.858;151.184;2023-04-01T16:29:48;18.40;99.90
16441;DHT22;8330;-33.858;151.184;2023-04-01T16:32:28;18.40;99.90
16441;DHT22;8330;-33.858;151.184;2023-04-01T16:35:22;18.30;99.90
16441;DHT22;8330;-33.858;151.184;2023-04-01T16:38:00;18.40;99.90
16441;DHT22;8330;-33.858;151.184;2023-04-01T16:40:43;18.30;99.90
16441;DHT22;8330;-33.858;151.184;2023-04-01T16:43:23;18.30;99.90
16441;DHT22;8330;-33.858;151.184;2023-04-01T16:49:15;18.10;99.90
16441;DHT22;8330;-33.858;151.184;2023-04-01T16:51:54;18.10;99.90
16441;DHT22;8330;-33.858;151.184;2023-04-01T16:54:31;18.10;99.90
16441;DHT22;8330;-33.858;151.184;2023-04-01T16:57:18;18.20;99.90
16441;DHT22;8330;-33.858;151.184;2023-04-01T16:59:57;18.20;99.90
16441;DHT22;8330;-33.858;151.184;2023-04-01T17:02:33;18.30;99.90
16441;DHT22;8330;-33.858;151.184;2023-04-01T17:05:08;18.30;99.90
16441;DHT22;8330;-33.858;151.184;2023-04-01T17:07:47;18.30;99.90
16441;DHT22;8330;-33.858;151.184;2023-04-01T17:10:41;18.30;99.90
16441;DHT22;8330;-33.858;151.184;2023-04-01T17:16:30;18.40;99.90
16441;DHT22;8330;-33.858;151.184;2023-04-01T17:19:14;18.30;99.90
16441;DHT22;8330;-33.858;151.184;2023-04-01T17:21:55;18.30;99.90
16441;DHT22;8330;-33.858;151.184;2023-04-01T17:24:37;18.30;99.90
16441;DHT22;8330;-33.858;151.184;2023-04-01T17:27:20;18.30;99.90
16441;DHT22;8330;-33.858;151.184;2023-04-01T17:30:18;18.10;99.90
16441;DHT22;8330;-33.858;151.184;2023-04-01T17:33:18;18.20;99.90
16441;DHT22;8330;-33.858;151.184;2023-04-01T17:35:58;18.20;99.90
16441;DHT22;8330;-33.858;151.184;2023-04-01T17:38:50;18.20;99.90
16441;DHT22;8330;-33.858;151.184;2023-04-01T17:41:30;18.30;99.90
16441;DHT22;8330;-33.858;151.184;2023-04-01T17:44:12;18.30;99.90
16441;DHT22;8330;-33.858;151.184;2023-04-01T17:47:01;18.30;99.90
16441;DHT22;8330;-33.858;151.184;2023-04-01T17:49:42;18.30;99.90
16441;DHT22;8330;-33.858;151.184;2023-04-01T17:52:22;18.20;99.90
16441;DHT22;8330;-33.858;151.184;2023-04-01T17:55:04;18.20;99.90
16441;DHT22;8330;-33.858;151.184;2023-04-01T17:57:46;18.20;99.90
16441;DHT22;8330;-33.858;151.184;2023-04-01T18:00:24;18.20;99.90
16441;DHT22;8330;-33.858;151.184;2023-04-01T18:03:05;18.20;99.90
16441;DHT22;8330;-33.858;151.184;2023-04-01T18:05:57;18.20;99.90